sensor_id;sensor_type;location;lat;lon;timestamp;pressure;altitude;pressure_sealevel;temperature;humidity
10474;BME280;5284;50.446;7.904;2023-04-06T00:04:36;98674.84;;;0.80;100.00
10474;BME280;5284;50.446;7.904;2023-04-06T00:09:40;98668.94;;;0.75;100.00
10474;BME280;5284;50.446;7.904;2023-04-06T00:14:42;98675.44;;;0.67;100.00
10474;BME280;5284;50.446;7.904;2023-04-06T00:19:45;98665.81;;;0.67;100.00
10474;BME280;5284;50.446;7.904;2023-04-06T00:24:49;98666.88;;;0.63;100.00
10474;BME280;5284;50.446;7.904;2023-04-06T00:29:52;98663.53;;;0.60;100.00
10474;BME280;5284;50.446;7.904;2023-04-06T00:34:55;98647.78;;;0.60;100.00
10474;BME280;5284;50.446;7.904;2023-04-06T00:39:59;98649.91;;;0.52;100.00
10474;BME280;5284;50.446;7.904;2023-04-06T00:45:03;98644.97;;;0.44;100.00
10474;BME280;5284;50.446;7.904;2023-04-06T00:50:06;98637.50;;;0.35;100.00
10474;BME280;5284;50.446;7.904;2023-04-06T00:55:11;98640.09;;;0.37;100.00
10474;BME280;5284;50.446;7.904;2023-04-06T01:00:16;98634.91;;;0.35;100.00
10474;BME280;5284;50.446;7.904;2023-04-06T01:05:21;98631.75;;;0.27;100.00
10474;BME280;5284;50.446;7.904;2023-04-06T01:10:31;98625.91;;;0.21;100.00
10474;BME280;5284;50.446;7.904;2023-04-06T01:15:57;98618.06;;;0.21;100.00
10474;BME280;5284;50.446;7.904;2023-04-06T01:21:18;98616.47;;;0.17;100.00
10474;BME280;5284;50.446;7.904;2023-04-06T01:26:48;98607.84;;;0.15;100.00
10474;BME280;5284;50.446;7.904;2023-04-06T01:31:51;98603.56;;;0.12;100.00
10474;BME280;5284;50.446;7.904;2023-04-06T01:36:54;98597.81;;;0.04;100.00
10474;BME280;5284;50.446;7.904;2023-04-06T01:42:03;98602.25;;;0.02;100.00
10474;BME280;5284;50.446;7.904;2023-04-06T01:47:08;98590.16;;;0.00;100.00
10474;BME280;5284;50.446;7.904;2023-04-06T01:52:11;98585.22;;;-0.07;100.00
10474;BME280;5284;50.446;7.904;2023-04-06T01:57:20;98587.06;;;-0.09;100.00
10474;BME280;5284;50.446;7.904;2023-04-06T02:02:32;98582.00;;;-0.14;100.00
10474;BME280;5284;50.446;7.904;2023-04-06T02:07:39;98582.13;;;-0.17;100.00
10474;BME280;5284;50.446;7.904;2023-04-06T02:12:45;98577.81;;;-0.18;100.00
10474;BME280;5284;50.446;7.904;2023-04-06T02:17:55;98578.88;;;-0.22;100.00
10474;BME280;5284;50.446;7.904;2023-04-06T02:22:59;98578.34;;;-0.30;100.00
10474;BME280;5284;50.446;7.904;2023-04-06T02:28:04;98569.75;;;-0.33;100.00
10474;BME280;5284;50.446;7.904;2023-04-06T02:33:07;98576.88;;;-0.37;100.00
10474;BME280;5284;50.446;7.904;2023-04-06T02:38:16;98562.19;;;-0.41;100.00
10474;BME280;5284;50.446;7.904;2023-04-06T02:43:20;98570.19;;;-0.44;100.00
10474;BME280;5284;50.446;7.904;2023-04-06T02:48:28;98563.31;;;-0.46;100.00
10474;BME280;5284;50.446;7.904;2023-04-06T02:53:32;98561.84;;;-0.53;100.00
10474;BME280;5284;50.446;7.904;2023-04-06T02:58:36;98564.28;;;-0.49;100.00
10474;BME280;5284;50.446;7.904;2023-04-06T03:03:39;98558.50;;;-0.57;100.00
10474;BME280;5284;50.446;7.904;2023-04-06T03:08:49;98562.19;;;-0.61;100.00
10474;BME280;5284;50.446;7.904;2023-04-06T03:13:53;98563.94;;;-0.61;100.00
10474;BME280;5284;50.446;7.904;2023-04-06T03:18:56;98559.84;;;-0.68;100.00
10474;BME280;5284;50.446;7.904;2023-04-06T03:23:59;98566.97;;;-0.72;100.00
10474;BME280;5284;50.446;7.904;2023-04-06T03:29:03;98566.31;;;-0.77;100.00
10474;BME280;5284;50.446;7.904;2023-04-06T03:34:07;98567.22;;;-0.78;100.00
10474;BME280;5284;50.446;7.904;2023-04-06T03:39:10;98567.97;;;-0.74;100.00
10474;BME280;5284;50.446;7.904;2023-04-06T03:44:17;98563.09;;;-0.83;100.00
10474;BME280;5284;50.446;7.904;2023-04-06T03:49:20;98568.63;;;-0.91;100.00
10474;BME280;5284;50.446;7.904;2023-04-06T03:54:25;98568.44;;;-0.86;100.00
10474;BME280;5284;50.446;7.904;2023-04-06T03:59:29;98571.38;;;-0.94;100.00
10474;BME280;5284;50.446;7.904;2023-04-06T04:04:32;98568.69;;;-0.92;100.00
10474;BME280;5284;50.446;7.904;2023-04-06T04:09:36;98577.56;;;-0.96;100.00
10474;BME280;5284;50.446;7.904;2023-04-06T04:14:40;98577.00;;;-1.04;100.00
10474;BME280;5284;50.446;7.904;2023-04-06T04:19:43;98577.13;;;-1.07;100.00
10474;BME280;5284;50.446;7.904;2023-04-06T04:24:47;98581.50;;;-1.08;100.00
10474;BME280;5284;50.446;7.904;2023-04-06T04:29:52;98590.22;;;-1.07;100.00
10474;BME280;5284;50.446;7.904;2023-04-06T04:34:55;98597.50;;;-1.15;100.00
10474;BME280;5284;50.446;7.904;2023-04-06T04:40:09;98589.78;;;-1.18;100.00
10474;BME280;5284;50.446;7.904;2023-04-06T04:45:28;98596.09;;;-1.24;100.00
10474;BME280;5284;50.446;7.904;2023-04-06T04:50:35;98593.72;;;-1.30;100.00
10474;BME280;5284;50.446;7.904;2023-04-06T04:55:38;98588.41;;;-1.28;100.00
10474;BME280;5284;50.446;7.904;2023-04-06T05:00:43;98589.44;;;-1.32;100.00
10474;BME280;5284;50.446;7.904;2023-04-06T05:05:46;98595.28;;;-1.26;100.00
10474;BME280;5284;50.446;7.904;2023-04-06T05:10:51;98595.28;;;-1.26;100.00
10474;BME280;5284;50.446;7.904;2023-04-06T05:15:56;98593.41;;;-1.22;100.00
10474;BME280;5284;50.446;7.904;2023-04-06T05:21:04;98607.91;;;-1.14;100.00
10474;BME280;5284;50.446;7.904;2023-04-06T05:26:25;98601.59;;;-1.08;100.00
10474;BME280;5284;50.446;7.904;2023-04-06T05:31:36;98592.59;;;-1.01;100.00
10474;BME280;5284;50.446;7.904;2023-04-06T05:36:40;98593.63;;;-0.84;100.00
10474;BME280;5284;50.446;7.904;2023-04-06T05:41:57;98594.81;;;-0.69;100.00
10474;BME280;5284;50.446;7.904;2023-04-06T05:47:13;98600.94;;;-0.49;100.00
10474;BME280;5284;50.446;7.904;2023-04-06T05:52:18;98605.31;;;-0.28;100.00
10474;BME280;5284;50.446;7.904;2023-04-06T05:57:23;98608.50;;;0.00;100.00
10474;BME280;5284;50.446;7.904;2023-04-06T06:02:30;98596.03;;;0.25;100.00
10474;BME280;5284;50.446;7.904;2023-04-06T06:07:33;98595.75;;;0.51;100.00
10474;BME280;5284;50.446;7.904;2023-04-06T06:12:37;98598.56;;;0.85;100.00
10474;BME280;5284;50.446;7.904;2023-04-06T06:17:42;98595.28;;;1.17;100.00
10474;BME280;5284;50.446;7.904;2023-04-06T06:22:45;98594.63;;;1.48;100.00
10474;BME280;5284;50.446;7.904;2023-04-06T06:27:52;98596.16;;;1.88;100.00
10474;BME280;5284;50.446;7.904;2023-04-06T06:32:56;98593.38;;;1.91;98.81
10474;BME280;5284;50.446;7.904;2023-04-06T06:38:01;98594.19;;;2.25;97.41
10474;BME280;5284;50.446;7.904;2023-04-06T06:43:06;98596.47;;;2.65;97.24
10474;BME280;5284;50.446;7.904;2023-04-06T06:48:23;98603.56;;;2.80;93.88
10474;BME280;5284;50.446;7.904;2023-04-06T06:53:25;98601.16;;;3.08;92.15
10474;BME280;5284;50.446;7.904;2023-04-06T06:58:29;98599.13;;;3.44;91.19
10474;BME280;5284;50.446;7.904;2023-04-06T07:03:35;98598.69;;;3.36;86.56
10474;BME280;5284;50.446;7.904;2023-04-06T07:08:38;98595.44;;;3.46;87.13
10474;BME280;5284;50.446;7.904;2023-04-06T07:13:41;98600.28;;;3.85;82.24
10474;BME280;5284;50.446;7.904;2023-04-06T07:18:46;98594.16;;;4.14;81.46
10474;BME280;5284;50.446;7.904;2023-04-06T07:23:50;98590.28;;;4.48;77.07
10474;BME280;5284;50.446;7.904;2023-04-06T07:28:55;98593.50;;;4.81;74.37
10474;BME280;5284;50.446;7.904;2023-04-06T07:34:00;98588.59;;;5.03;74.08
10474;BME280;5284;50.446;7.904;2023-04-06T07:39:04;98590.09;;;5.21;73.34
10474;BME280;5284;50.446;7.904;2023-04-06T07:44:08;98589.03;;;5.78;70.10
10474;BME280;5284;50.446;7.904;2023-04-06T07:49:13;98588.09;;;5.79;68.81
10474;BME280;5284;50.446;7.904;2023-04-06T07:54:17;98592.41;;;6.06;67.55
10474;BME280;5284;50.446;7.904;2023-04-06T07:59:23;98588.88;;;6.32;67.71
10474;BME280;5284;50.446;7.904;2023-04-06T08:04:28;98581.63;;;6.86;65.93
10474;BME280;5284;50.446;7.904;2023-04-06T08:09:31;98591.34;;;7.23;65.10
10474;BME280;5284;50.446;7.904;2023-04-06T08:14:34;98586.22;;;7.32;64.16
10474;BME280;5284;50.446;7.904;2023-04-06T08:19:39;98581.59;;;7.47;64.15
10474;BME280;5284;50.446;7.904;2023-04-06T08:24:42;98583.59;;;7.91;64.56
10474;BME280;5284;50.446;7.904;2023-04-06T08:29:45;98585.03;;;7.95;63.47
10474;BME280;5284;50.446;7.904;2023-04-06T08:34:53;98580.38;;;8.22;62.36
10474;BME280;5284;50.446;7.904;2023-04-06T08:39:58;98579.63;;;8.66;61.01
10474;BME280;5284;50.446;7.904;2023-04-06T08:45:02;98577.16;;;8.86;60.30
10474;BME280;5284;50.446;7.904;2023-04-06T08:50:07;98572.94;;;9.06;61.16
10474;BME280;5284;50.446;7.904;2023-04-06T08:55:12;98563.94;;;9.61;59.58
10474;BME280;5284;50.446;7.904;2023-04-06T09:00:16;98567.88;;;9.89;58.23
10474;BME280;5284;50.446;7.904;2023-04-06T09:05:21;98569.72;;;10.20;58.43
10474;BME280;5284;50.446;7.904;2023-04-06T09:10:27;98568.13;;;10.28;59.24
10474;BME280;5284;50.446;7.904;2023-04-06T09:15:33;98564.88;;;10.25;56.58
10474;BME280;5284;50.446;7.904;2023-04-06T09:20:39;98560.66;;;10.83;55.24
10474;BME280;5284;50.446;7.904;2023-04-06T09:25:42;98559.84;;;11.43;55.61
10474;BME280;5284;50.446;7.904;2023-04-06T09:30:48;98547.78;;;11.97;54.36
10474;BME280;5284;50.446;7.904;2023-04-06T09:35:52;98539.44;;;12.66;53.60
10474;BME280;5284;50.446;7.904;2023-04-06T09:40:56;98534.41;;;12.44;51.73
10474;BME280;5284;50.446;7.904;2023-04-06T09:46:03;98531.41;;;11.81;51.71
10474;BME280;5284;50.446;7.904;2023-04-06T09:51:11;98536.66;;;12.11;50.44
10474;BME280;5284;50.446;7.904;2023-04-06T09:56:21;98522.84;;;13.18;50.14
10474;BME280;5284;50.446;7.904;2023-04-06T10:01:28;98518.84;;;12.95;48.54
10474;BME280;5284;50.446;7.904;2023-04-06T10:06:36;98519.41;;;12.70;47.09
10474;BME280;5284;50.446;7.904;2023-04-06T10:11:40;98510.16;;;12.65;46.18
10474;BME280;5284;50.446;7.904;2023-04-06T10:16:44;98522.56;;;13.21;46.84
10474;BME280;5284;50.446;7.904;2023-04-06T10:21:51;98508.78;;;13.16;45.49
10474;BME280;5284;50.446;7.904;2023-04-06T10:26:58;98513.53;;;13.22;46.18
10474;BME280;5284;50.446;7.904;2023-04-06T10:32:02;98510.25;;;13.55;44.75
10474;BME280;5284;50.446;7.904;2023-04-06T10:37:16;98509.00;;;12.96;45.14
10474;BME280;5284;50.446;7.904;2023-04-06T10:42:24;98512.91;;;13.65;45.96
10474;BME280;5284;50.446;7.904;2023-04-06T10:47:38;98519.63;;;13.69;45.03
10474;BME280;5284;50.446;7.904;2023-04-06T10:52:44;98507.16;;;13.94;47.20
10474;BME280;5284;50.446;7.904;2023-04-06T10:57:47;98514.50;;;13.75;46.96
10474;BME280;5284;50.446;7.904;2023-04-06T11:02:49;98499.84;;;13.25;47.18
10474;BME280;5284;50.446;7.904;2023-04-06T11:07:54;98494.72;;;13.05;48.08
10474;BME280;5284;50.446;7.904;2023-04-06T11:12:57;98495.00;;;14.00;47.19
10474;BME280;5284;50.446;7.904;2023-04-06T11:18:03;98495.88;;;14.78;46.06
10474;BME280;5284;50.446;7.904;2023-04-06T11:23:08;98483.22;;;13.93;46.85
10474;BME280;5284;50.446;7.904;2023-04-06T11:28:13;98478.97;;;14.08;46.28
10474;BME280;5284;50.446;7.904;2023-04-06T11:33:20;98469.28;;;14.24;44.62
10474;BME280;5284;50.446;7.904;2023-04-06T11:38:25;98474.03;;;14.73;43.38
10474;BME280;5284;50.446;7.904;2023-04-06T11:43:29;98466.34;;;15.94;44.25
10474;BME280;5284;50.446;7.904;2023-04-06T11:48:44;98454.13;;;14.84;42.55
10474;BME280;5284;50.446;7.904;2023-04-06T11:53:48;98458.81;;;15.15;43.46
10474;BME280;5284;50.446;7.904;2023-04-06T11:58:51;98444.13;;;14.08;42.46
10474;BME280;5284;50.446;7.904;2023-04-06T12:03:54;98445.88;;;14.52;42.79
10474;BME280;5284;50.446;7.904;2023-04-06T12:08:58;98465.00;;;14.57;43.23
10474;BME280;5284;50.446;7.904;2023-04-06T12:14:02;98447.88;;;15.42;42.50
10474;BME280;5284;50.446;7.904;2023-04-06T12:19:06;98444.50;;;14.73;41.20
10474;BME280;5284;50.446;7.904;2023-04-06T12:24:10;98452.00;;;14.95;42.64
10474;BME280;5284;50.446;7.904;2023-04-06T12:29:13;98443.31;;;15.01;42.46
10474;BME280;5284;50.446;7.904;2023-04-06T12:34:16;98449.63;;;14.41;44.53
10474;BME280;5284;50.446;7.904;2023-04-06T12:39:20;98450.38;;;14.51;45.06
10474;BME280;5284;50.446;7.904;2023-04-06T12:44:26;98441.72;;;14.40;44.21
10474;BME280;5284;50.446;7.904;2023-04-06T12:49:29;98441.41;;;14.43;45.46
10474;BME280;5284;50.446;7.904;2023-04-06T12:54:34;98448.03;;;14.13;46.37
10474;BME280;5284;50.446;7.904;2023-04-06T12:59:36;98448.59;;;13.99;45.50
10474;BME280;5284;50.446;7.904;2023-04-06T13:04:39;98442.91;;;13.85;45.84
10474;BME280;5284;50.446;7.904;2023-04-06T13:09:44;98427.13;;;14.60;44.42
10474;BME280;5284;50.446;7.904;2023-04-06T13:14:49;98428.25;;;14.32;44.03
10474;BME280;5284;50.446;7.904;2023-04-06T13:19:53;98431.50;;;14.35;43.17
10474;BME280;5284;50.446;7.904;2023-04-06T13:24:59;98433.63;;;14.14;43.82
10474;BME280;5284;50.446;7.904;2023-04-06T13:30:02;98431.34;;;14.19;44.95
10474;BME280;5284;50.446;7.904;2023-04-06T13:35:06;98423.38;;;13.75;44.34
10474;BME280;5284;50.446;7.904;2023-04-06T13:40:11;98413.22;;;13.34;44.65
10474;BME280;5284;50.446;7.904;2023-04-06T13:45:15;98417.66;;;13.43;46.10
10474;BME280;5284;50.446;7.904;2023-04-06T13:50:18;98424.13;;;13.06;45.75
10474;BME280;5284;50.446;7.904;2023-04-06T13:55:23;98415.47;;;13.12;44.91
10474;BME280;5284;50.446;7.904;2023-04-06T14:00:26;98419.66;;;12.87;46.01
10474;BME280;5284;50.446;7.904;2023-04-06T14:05:31;98403.44;;;12.62;47.00
10474;BME280;5284;50.446;7.904;2023-04-06T14:10:38;98413.28;;;12.61;45.65
10474;BME280;5284;50.446;7.904;2023-04-06T14:15:42;98409.66;;;12.89;46.45
10474;BME280;5284;50.446;7.904;2023-04-06T14:20:45;98402.66;;;12.79;46.56
10474;BME280;5284;50.446;7.904;2023-04-06T14:25:49;98413.59;;;12.49;45.58
10474;BME280;5284;50.446;7.904;2023-04-06T14:30:52;98413.84;;;12.65;44.77
10474;BME280;5284;50.446;7.904;2023-04-06T14:35:54;98406.53;;;12.57;44.12
10474;BME280;5284;50.446;7.904;2023-04-06T14:40:59;98411.66;;;12.78;45.34
10474;BME280;5284;50.446;7.904;2023-04-06T14:46:02;98420.97;;;12.74;44.40
10474;BME280;5284;50.446;7.904;2023-04-06T14:51:05;98419.31;;;12.27;44.60
10474;BME280;5284;50.446;7.904;2023-04-06T14:56:09;98413.69;;;12.20;45.79
10474;BME280;5284;50.446;7.904;2023-04-06T15:01:13;98413.41;;;12.05;48.08
10474;BME280;5284;50.446;7.904;2023-04-06T15:06:17;98406.56;;;11.64;50.64
10474;BME280;5284;50.446;7.904;2023-04-06T15:11:23;98412.72;;;11.65;51.07
10474;BME280;5284;50.446;7.904;2023-04-06T15:16:26;98416.53;;;11.62;49.18
10474;BME280;5284;50.446;7.904;2023-04-06T15:21:33;98420.72;;;11.65;49.40
10474;BME280;5284;50.446;7.904;2023-04-06T15:26:38;98420.47;;;11.58;51.36
10474;BME280;5284;50.446;7.904;2023-04-06T15:31:42;98428.59;;;11.57;52.62
10474;BME280;5284;50.446;7.904;2023-04-06T15:36:45;98435.03;;;11.54;54.33
10474;BME280;5284;50.446;7.904;2023-04-06T15:41:50;98439.22;;;11.28;55.34
10474;BME280;5284;50.446;7.904;2023-04-06T15:46:52;98442.25;;;11.14;55.85
10474;BME280;5284;50.446;7.904;2023-04-06T15:51:56;98435.47;;;11.01;56.86
10474;BME280;5284;50.446;7.904;2023-04-06T15:57:00;98448.59;;;10.83;57.22
10474;BME280;5284;50.446;7.904;2023-04-06T16:02:03;98455.03;;;10.71;58.66
10474;BME280;5284;50.446;7.904;2023-04-06T16:07:06;98457.09;;;10.68;60.00
10474;BME280;5284;50.446;7.904;2023-04-06T16:12:10;98453.22;;;10.52;58.47
10474;BME280;5284;50.446;7.904;2023-04-06T16:17:13;98445.00;;;10.34;59.78
10474;BME280;5284;50.446;7.904;2023-04-06T16:22:16;98448.13;;;10.39;60.29
10474;BME280;5284;50.446;7.904;2023-04-06T16:27:20;98445.31;;;10.41;60.69
10474;BME280;5284;50.446;7.904;2023-04-06T16:32:24;98450.91;;;10.38;61.85
10474;BME280;5284;50.446;7.904;2023-04-06T16:37:27;98448.72;;;10.22;63.01
10474;BME280;5284;50.446;7.904;2023-04-06T16:42:31;98447.41;;;10.17;65.85
10474;BME280;5284;50.446;7.904;2023-04-06T16:47:34;98439.84;;;10.01;67.76
10474;BME280;5284;50.446;7.904;2023-04-06T16:52:38;98439.84;;;10.01;72.10
10474;BME280;5284;50.446;7.904;2023-04-06T16:57:43;98447.16;;;9.88;73.57
10474;BME280;5284;50.446;7.904;2023-04-06T17:02:49;98446.78;;;9.93;74.12
10474;BME280;5284;50.446;7.904;2023-04-06T17:07:52;98449.50;;;9.82;77.11
10474;BME280;5284;50.446;7.904;2023-04-06T17:12:57;98456.41;;;9.53;80.89
10474;BME280;5284;50.446;7.904;2023-04-06T17:17:59;98445.25;;;9.48;81.39
10474;BME280;5284;50.446;7.904;2023-04-06T17:23:03;98452.56;;;9.35;83.52
10474;BME280;5284;50.446;7.904;2023-04-06T17:28:07;98458.19;;;9.21;83.71
10474;BME280;5284;50.446;7.904;2023-04-06T17:33:10;98458.19;;;9.10;84.39
10474;BME280;5284;50.446;7.904;2023-04-06T17:38:14;98470.19;;;9.05;86.78
10474;BME280;5284;50.446;7.904;2023-04-06T17:43:18;98468.59;;;8.80;95.55
10474;BME280;5284;50.446;7.904;2023-04-06T17:48:21;98478.03;;;8.62;100.00
10474;BME280;5284;50.446;7.904;2023-04-06T17:53:24;98483.13;;;8.54;100.00
10474;BME280;5284;50.446;7.904;2023-04-06T17:58:32;98481.63;;;8.39;100.00
10474;BME280;5284;50.446;7.904;2023-04-06T18:03:35;98487.28;;;8.24;100.00
10474;BME280;5284;50.446;7.904;2023-04-06T18:08:39;98493.91;;;8.18;100.00
10474;BME280;5284;50.446;7.904;2023-04-06T18:13:43;98490.81;;;8.01;100.00
10474;BME280;5284;50.446;7.904;2023-04-06T18:18:48;98497.09;;;8.00;100.00
10474;BME280;5284;50.446;7.904;2023-04-06T18:23:50;98500.88;;;7.85;100.00
10474;BME280;5284;50.446;7.904;2023-04-06T18:28:55;98499.28;;;7.82;100.00
10474;BME280;5284;50.446;7.904;2023-04-06T18:33:58;98492.53;;;7.78;100.00
10474;BME280;5284;50.446;7.904;2023-04-06T18:39:01;98505.41;;;7.72;100.00
10474;BME280;5284;50.446;7.904;2023-04-06T18:44:07;98500.03;;;7.61;100.00
10474;BME280;5284;50.446;7.904;2023-04-06T18:49:10;98504.34;;;7.51;100.00
10474;BME280;5284;50.446;7.904;2023-04-06T18:54:14;98502.56;;;7.52;100.00
10474;BME280;5284;50.446;7.904;2023-04-06T18:59:18;98507.22;;;7.48;100.00
10474;BME280;5284;50.446;7.904;2023-04-06T19:04:21;98508.09;;;7.49;100.00
10474;BME280;5284;50.446;7.904;2023-04-06T19:09:24;98512.34;;;7.39;100.00
10474;BME280;5284;50.446;7.904;2023-04-06T19:14:30;98515.34;;;7.34;100.00
10474;BME280;5284;50.446;7.904;2023-04-06T19:19:34;98504.38;;;7.39;100.00
10474;BME280;5284;50.446;7.904;2023-04-06T19:24:38;98508.13;;;7.36;100.00
10474;BME280;5284;50.446;7.904;2023-04-06T19:29:42;98516.31;;;7.33;100.00
10474;BME280;5284;50.446;7.904;2023-04-06T19:34:46;98501.19;;;7.10;100.00
10474;BME280;5284;50.446;7.904;2023-04-06T19:39:48;98504.59;;;7.12;100.00
10474;BME280;5284;50.446;7.904;2023-04-06T19:44:53;98499.38;;;7.11;100.00
10474;BME280;5284;50.446;7.904;2023-04-06T19:49:57;98502.09;;;6.98;100.00
10474;BME280;5284;50.446;7.904;2023-04-06T19:55:00;98505.38;;;6.89;100.00
10474;BME280;5284;50.446;7.904;2023-04-06T20:00:07;98494.44;;;6.94;100.00
10474;BME280;5284;50.446;7.904;2023-04-06T20:05:10;98487.16;;;6.85;100.00
10474;BME280;5284;50.446;7.904;2023-04-06T20:10:13;98495.53;;;6.79;100.00
10474;BME280;5284;50.446;7.904;2023-04-06T20:15:18;98502.50;;;6.80;100.00
10474;BME280;5284;50.446;7.904;2023-04-06T20:20:21;98496.28;;;6.81;100.00
10474;BME280;5284;50.446;7.904;2023-04-06T20:25:24;98487.03;;;6.86;100.00
10474;BME280;5284;50.446;7.904;2023-04-06T20:30:28;98480.91;;;6.86;100.00
10474;BME280;5284;50.446;7.904;2023-04-06T20:35:31;98474.44;;;6.90;100.00
10474;BME280;5284;50.446;7.904;2023-04-06T20:40:35;98471.34;;;6.83;100.00
10474;BME280;5284;50.446;7.904;2023-04-06T20:45:39;98460.66;;;6.85;100.00
10474;BME280;5284;50.446;7.904;2023-04-06T20:50:43;98460.97;;;6.80;100.00
10474;BME280;5284;50.446;7.904;2023-04-06T20:55:46;98458.31;;;6.80;100.00
10474;BME280;5284;50.446;7.904;2023-04-06T21:00:51;98452.06;;;6.81;100.00
10474;BME280;5284;50.446;7.904;2023-04-06T21:05:55;98446.31;;;6.87;100.00
10474;BME280;5284;50.446;7.904;2023-04-06T21:10:58;98440.19;;;6.87;100.00
10474;BME280;5284;50.446;7.904;2023-04-06T21:16:03;98437.75;;;6.84;100.00
10474;BME280;5284;50.446;7.904;2023-04-06T21:21:07;98436.38;;;6.78;100.00
10474;BME280;5284;50.446;7.904;2023-04-06T21:26:11;98438.53;;;6.73;100.00
10474;BME280;5284;50.446;7.904;2023-04-06T21:31:15;98436.72;;;6.74;100.00
10474;BME280;5284;50.446;7.904;2023-04-06T21:36:20;98421.31;;;6.79;100.00
10474;BME280;5284;50.446;7.904;2023-04-06T21:41:27;98412.53;;;6.78;100.00
10474;BME280;5284;50.446;7.904;2023-04-06T21:46:31;98411.16;;;6.73;100.00
10474;BME280;5284;50.446;7.904;2023-04-06T21:51:34;98419.63;;;6.78;100.00
10474;BME280;5284;50.446;7.904;2023-04-06T21:56:37;98413.72;;;6.74;100.00
10474;BME280;5284;50.446;7.904;2023-04-06T22:01:43;98411.28;;;6.71;100.00
10474;BME280;5284;50.446;7.904;2023-04-06T22:06:45;98405.78;;;6.74;100.00
10474;BME280;5284;50.446;7.904;2023-04-06T22:11:48;98404.91;;;6.74;100.00
10474;BME280;5284;50.446;7.904;2023-04-06T22:16:53;98398.44;;;6.78;100.00
10474;BME280;5284;50.446;7.904;2023-04-06T22:21:56;98391.56;;;6.75;100.00
10474;BME280;5284;50.446;7.904;2023-04-06T22:26:59;98390.88;;;6.84;100.00
10474;BME280;5284;50.446;7.904;2023-04-06T22:32:04;98381.78;;;6.76;100.00
10474;BME280;5284;50.446;7.904;2023-04-06T22:37:07;98383.63;;;6.75;100.00
10474;BME280;5284;50.446;7.904;2023-04-06T22:42:10;98369.00;;;6.70;100.00
10474;BME280;5284;50.446;7.904;2023-04-06T22:47:14;98375.59;;;6.64;100.00
10474;BME280;5284;50.446;7.904;2023-04-06T22:52:17;98372.38;;;6.72;100.00
10474;BME280;5284;50.446;7.904;2023-04-06T22:57:20;98360.59;;;6.76;100.00
10474;BME280;5284;50.446;7.904;2023-04-06T23:02:25;98355.97;;;6.67;100.00
10474;BME280;5284;50.446;7.904;2023-04-06T23:07:28;98353.44;;;6.65;100.00
10474;BME280;5284;50.446;7.904;2023-04-06T23:12:33;98348.31;;;6.75;100.00
10474;BME280;5284;50.446;7.904;2023-04-06T23:17:37;98344.09;;;6.72;100.00
10474;BME280;5284;50.446;7.904;2023-04-06T23:22:40;98348.94;;;6.78;100.00
10474;BME280;5284;50.446;7.904;2023-04-06T23:27:42;98343.50;;;6.80;100.00
10474;BME280;5284;50.446;7.904;2023-04-06T23:32:47;98336.31;;;6.82;100.00
10474;BME280;5284;50.446;7.904;2023-04-06T23:37:50;98340.59;;;6.72;100.00
10474;BME280;5284;50.446;7.904;2023-04-06T23:42:52;98334.09;;;6.76;100.00
10474;BME280;5284;50.446;7.904;2023-04-06T23:47:56;98322.66;;;6.75;100.00
10474;BME280;5284;50.446;7.904;2023-04-06T23:52:59;98327.84;;;6.77;100.00
10474;BME280;5284;50.446;7.904;2023-04-06T23:58:02;98322.31;;;6.80;100.00
